createdAt,value
2019-03-28T00:01:32.970Z,15.13
2019-03-28T00:04:04.683Z,14.00
2019-03-28T00:06:36.228Z,13.80
2019-03-28T00:09:10.074Z,13.93
2019-03-28T00:11:41.667Z,14.30
2019-03-28T00:14:13.210Z,13.27
2019-03-28T00:16:44.742Z,13.50
2019-03-28T00:19:16.226Z,13.47
2019-03-28T00:21:47.751Z,14.23
2019-03-28T00:24:32.338Z,14.30
2019-03-28T00:27:03.965Z,14.10
2019-03-28T00:29:35.795Z,14.97
2019-03-28T00:32:07.780Z,14.40
2019-03-28T00:34:39.288Z,13.13
2019-03-28T00:37:11.150Z,14.13
2019-03-28T00:39:42.637Z,13.50
2019-03-28T00:42:14.133Z,13.43
2019-03-28T00:44:45.693Z,14.17
2019-03-28T00:47:17.114Z,14.47
2019-03-28T00:49:48.644Z,14.10
2019-03-28T00:52:20.130Z,14.07
2019-03-28T00:54:51.630Z,14.97
2019-03-28T00:57:23.122Z,14.43
2019-03-28T00:59:54.629Z,15.63
2019-03-28T01:02:26.045Z,14.60
2019-03-28T01:04:57.574Z,13.63
2019-03-28T01:07:29.125Z,15.23
2019-03-28T01:10:00.574Z,14.53
2019-03-28T01:12:32.140Z,14.03
2019-03-28T01:15:02.997Z,13.57
2019-03-28T01:17:34.374Z,14.30
2019-03-28T01:20:06.018Z,14.43
2019-03-28T01:22:37.473Z,13.80
2019-03-28T01:25:09.114Z,14.70
2019-03-28T01:27:41.538Z,14.80
2019-03-28T01:30:12.093Z,15.73
2019-03-28T01:32:43.394Z,14.70
2019-03-28T01:35:14.849Z,14.83
2019-03-28T01:37:46.662Z,14.57
2019-03-28T01:40:18.126Z,14.00
2019-03-28T01:42:49.615Z,14.33
2019-03-28T01:45:21.086Z,14.37
2019-03-28T01:47:52.577Z,13.70
2019-03-28T01:50:24.029Z,14.10
2019-03-28T01:52:55.515Z,13.60
2019-03-28T01:55:27.007Z,14.43
2019-03-28T01:57:58.489Z,14.17
2019-03-28T02:00:29.974Z,14.10
2019-03-28T02:03:01.446Z,13.10
2019-03-28T02:05:33.005Z,14.13
2019-03-28T02:08:04.470Z,13.23
2019-03-28T02:10:35.966Z,13.40
2019-03-28T02:13:07.494Z,13.83
2019-03-28T02:15:39.965Z,13.87
2019-03-28T02:18:11.495Z,13.77
2019-03-28T02:20:42.985Z,13.87
2019-03-28T02:23:15.491Z,13.97
2019-03-28T02:25:46.978Z,13.70
2019-03-28T02:28:18.610Z,12.83
2019-03-28T02:30:51.175Z,14.37
2019-03-28T02:33:22.752Z,12.80
2019-03-28T02:35:54.302Z,13.83
2019-03-28T02:38:26.216Z,13.70
2019-03-28T02:40:57.726Z,13.10
2019-03-28T02:43:30.290Z,12.90
2019-03-28T02:46:01.779Z,13.23
2019-03-28T02:48:33.291Z,12.43
2019-03-28T02:51:04.181Z,12.90
2019-03-28T02:53:35.454Z,12.60
2019-03-28T02:56:06.951Z,12.63
2019-03-28T02:58:38.440Z,12.00
2019-03-28T03:01:09.941Z,12.33
2019-03-28T03:03:41.448Z,12.07
2019-03-28T03:06:13.075Z,11.90
2019-03-28T03:08:44.575Z,12.03
2019-03-28T03:11:16.091Z,12.10
2019-03-28T03:13:47.582Z,12.30
2019-03-28T03:16:19.119Z,12.20
2019-03-28T03:18:50.630Z,12.60
2019-03-28T03:21:22.128Z,11.53
2019-03-28T03:23:53.618Z,12.10
2019-03-28T03:26:25.145Z,12.33
2019-03-28T03:28:56.627Z,12.27
2019-03-28T03:31:28.418Z,12.30
2019-03-28T03:33:59.917Z,12.43
2019-03-28T03:36:31.439Z,12.07
2019-03-28T03:39:02.994Z,12.93
2019-03-28T03:41:34.595Z,12.23
2019-03-28T03:44:06.087Z,12.20
2019-03-28T03:46:37.613Z,12.33
2019-03-28T03:49:09.111Z,11.73
2019-03-28T03:51:41.001Z,11.60
2019-03-28T03:54:12.458Z,12.43
2019-03-28T03:56:43.951Z,11.80
2019-03-28T03:59:15.473Z,12.27
2019-03-28T04:01:47.267Z,12.60
2019-03-28T04:04:18.801Z,12.53
2019-03-28T04:06:52.444Z,11.87
2019-03-28T04:09:26.476Z,12.53
2019-03-28T04:11:59.414Z,12.03
2019-03-28T04:14:30.942Z,12.17
2019-03-28T04:17:02.441Z,12.07
2019-03-28T04:19:33.937Z,13.23
2019-03-28T04:22:05.143Z,11.47
2019-03-28T04:24:36.447Z,12.83
2019-03-28T04:27:08.323Z,11.67
2019-03-28T04:29:39.910Z,11.93
2019-03-28T04:32:11.402Z,11.90
2019-03-28T04:34:43.194Z,11.83
2019-03-28T04:37:14.990Z,12.13
2019-03-28T04:39:46.554Z,11.90
2019-03-28T04:42:17.129Z,12.03
2019-03-28T04:44:48.430Z,11.63
2019-03-28T04:47:19.990Z,10.93
2019-03-28T04:49:51.474Z,11.30
2019-03-28T04:52:23.005Z,11.10
2019-03-28T04:54:55.355Z,11.93
2019-03-28T04:57:26.934Z,11.53
2019-03-28T04:59:58.865Z,11.17
2019-03-28T05:02:31.443Z,12.53
2019-03-28T05:05:03.088Z,12.77
2019-03-28T05:07:34.583Z,12.63
2019-03-28T05:10:07.250Z,11.83
2019-03-28T05:12:38.779Z,11.50
2019-03-28T05:15:11.550Z,12.57
2019-03-28T05:17:43.089Z,12.63
2019-03-28T05:20:15.321Z,12.17
2019-03-28T05:22:46.858Z,12.30
2019-03-28T05:25:18.549Z,11.60
2019-03-28T05:27:50.182Z,11.57
2019-03-28T05:30:21.914Z,11.97
2019-03-28T05:32:53.611Z,11.73
2019-03-28T05:35:25.392Z,11.33
2019-03-28T05:37:58.018Z,12.07
2019-03-28T05:40:29.794Z,12.30
2019-03-28T05:43:00.366Z,13.03
2019-03-28T05:45:33.959Z,12.20
2019-03-28T05:48:06.257Z,11.17
2019-03-28T05:50:37.850Z,12.03
2019-03-28T05:53:10.066Z,11.83
2019-03-28T05:55:41.682Z,11.30
2019-03-28T05:58:13.655Z,11.83
2019-03-28T06:00:45.169Z,10.67
2019-03-28T06:03:16.694Z,10.53
2019-03-28T06:05:48.209Z,10.17
2019-03-28T06:08:19.414Z,11.00
2019-03-28T06:10:50.345Z,12.07
2019-03-28T06:13:21.581Z,11.77
2019-03-28T06:15:53.101Z,10.87
2019-03-28T06:18:24.942Z,12.00
2019-03-28T06:20:55.600Z,11.73
2019-03-28T06:23:26.921Z,11.37
2019-03-28T06:25:58.411Z,10.73
2019-03-28T06:28:30.113Z,10.47
2019-03-28T06:31:01.610Z,11.37
2019-03-28T06:33:32.242Z,12.57
2019-03-28T06:36:03.520Z,12.67
2019-03-28T06:38:35.205Z,12.97
2019-03-28T06:41:06.880Z,11.63
2019-03-28T06:43:41.775Z,12.60
2019-03-28T06:46:12.130Z,11.80
2019-03-28T06:48:45.319Z,13.23
2019-03-28T06:51:16.966Z,11.77
2019-03-28T06:53:48.723Z,10.90
2019-03-28T06:56:20.352Z,11.47
2019-03-28T06:58:51.897Z,10.50
2019-03-28T07:01:23.658Z,11.13
2019-03-28T07:03:56.330Z,10.43
2019-03-28T07:06:29.146Z,10.03
2019-03-28T07:09:00.649Z,9.73
2019-03-28T07:11:32.245Z,8.87
2019-03-28T07:14:03.748Z,9.07
2019-03-28T07:16:35.616Z,8.13
2019-03-28T07:19:07.162Z,8.27
2019-03-28T07:21:38.670Z,9.00
2019-03-28T07:24:10.162Z,8.03
2019-03-28T07:26:41.662Z,8.10
2019-03-28T07:29:12.572Z,8.07
2019-03-28T07:31:44.056Z,8.43
2019-03-28T07:34:15.500Z,8.43
2019-03-28T07:36:47.022Z,8.90
2019-03-28T07:39:19.245Z,8.73
2019-03-28T07:41:49.938Z,9.60
2019-03-28T07:44:21.164Z,8.43
2019-03-28T07:46:52.958Z,8.50
2019-03-28T07:49:24.442Z,8.10
2019-03-28T07:51:55.978Z,8.37
2019-03-28T07:54:26.607Z,9.27
2019-03-28T07:56:58.237Z,8.00
2019-03-28T07:59:28.822Z,7.33
2019-03-28T08:02:00.186Z,7.77
2019-03-28T08:04:31.687Z,7.57
2019-03-28T08:07:02.446Z,8.00
2019-03-28T08:09:36.861Z,8.70
2019-03-28T08:12:21.432Z,7.40
2019-03-28T08:14:40.438Z,6.43
2019-03-28T08:17:11.960Z,5.83
2019-03-28T08:19:44.014Z,5.15
2019-03-28T08:22:16.150Z,7.08
2019-03-28T08:24:47.711Z,8.17
2019-03-28T08:27:19.838Z,6.70
2019-03-28T08:29:50.898Z,7.62
2019-03-28T08:32:24.891Z,8.00
2019-03-28T08:34:56.422Z,7.50
2019-03-28T08:37:28.409Z,5.63
2019-03-28T08:40:01.553Z,6.83
2019-03-28T08:42:33.098Z,5.97
2019-03-28T08:45:04.890Z,5.90
2019-03-28T08:47:36.418Z,6.63
2019-03-28T08:50:08.180Z,6.30
2019-03-28T08:52:38.739Z,6.47
2019-03-28T08:55:10.163Z,6.60
2019-03-28T08:57:41.608Z,5.70
2019-03-28T09:00:12.462Z,6.87
2019-03-28T09:02:43.891Z,6.77
2019-03-28T09:05:15.376Z,6.47
2019-03-28T09:07:46.902Z,6.57
2019-03-28T09:10:19.358Z,5.37
2019-03-28T09:12:50.923Z,6.33
2019-03-28T09:15:22.438Z,5.10
2019-03-28T09:17:53.090Z,5.40
2019-03-28T09:20:24.414Z,5.17
2019-03-28T09:22:56.005Z,4.60
2019-03-28T09:25:27.770Z,5.30
2019-03-28T09:27:59.291Z,3.90
2019-03-28T09:30:49.751Z,4.35
2019-03-28T09:33:20.985Z,4.67
2019-03-28T09:35:53.123Z,4.75
2019-03-28T09:38:25.187Z,4.90
2019-03-28T09:40:57.250Z,4.62
2019-03-28T09:43:29.330Z,3.20
2019-03-28T09:46:02.102Z,2.67
2019-03-28T09:48:35.322Z,2.83
2019-03-28T09:51:06.914Z,3.20
2019-03-28T09:53:39.002Z,3.50
2019-03-28T09:56:09.561Z,3.93
2019-03-28T09:58:40.858Z,4.60
2019-03-28T10:01:12.346Z,4.10
2019-03-28T10:03:43.770Z,4.50
2019-03-28T10:06:15.281Z,4.10
2019-03-28T10:08:46.708Z,3.80
2019-03-28T10:11:19.200Z,4.20
2019-03-28T10:13:50.686Z,3.87
2019-03-28T10:16:22.129Z,3.90
2019-03-28T10:18:52.605Z,4.03
2019-03-28T10:21:23.934Z,3.90
2019-03-28T10:23:55.414Z,3.60
2019-03-28T10:26:25.982Z,3.60
2019-03-28T10:28:57.275Z,2.70
2019-03-28T10:31:28.846Z,3.03
2019-03-28T10:34:00.431Z,3.20
2019-03-28T10:36:30.942Z,2.87
2019-03-28T10:39:02.233Z,3.10
2019-03-28T10:41:35.010Z,3.37
2019-03-28T10:44:06.493Z,4.43
2019-03-28T10:46:37.938Z,2.97
2019-03-28T10:49:09.429Z,3.70
2019-03-28T10:51:40.846Z,3.63
2019-03-28T10:54:20.125Z,3.20
2019-03-28T10:56:51.686Z,3.47
2019-03-28T10:59:23.341Z,3.43
2019-03-28T11:01:50.843Z,2.90
2019-03-28T11:04:22.847Z,3.20
2019-03-28T11:06:54.830Z,3.75
2019-03-28T11:09:26.926Z,7.12
2019-03-28T11:11:58.989Z,3.45
2019-03-28T11:14:30.518Z,3.52
2019-03-28T11:17:02.010Z,3.47
2019-03-28T11:19:33.847Z,3.95
2019-03-28T11:22:05.365Z,4.10
2019-03-28T11:24:37.424Z,3.27
2019-03-28T11:27:08.930Z,3.50
2019-03-28T11:29:40.534Z,3.67
2019-03-28T11:32:11.094Z,3.53
2019-03-28T11:34:42.386Z,3.70
2019-03-28T11:37:25.247Z,3.53
2019-03-28T11:39:47.278Z,3.30
2019-03-28T11:42:19.379Z,3.45
2019-03-28T11:44:51.426Z,3.30
2019-03-28T11:47:23.899Z,3.00
2019-03-28T11:49:55.931Z,3.17
2019-03-28T11:52:26.533Z,2.90
2019-03-28T11:54:57.824Z,3.42
2019-03-28T11:57:29.350Z,3.60
2019-03-28T12:00:00.901Z,3.90
2019-03-28T12:02:34.042Z,3.20
2019-03-28T12:05:04.801Z,2.50
2019-03-28T12:07:36.111Z,1.90
2019-03-28T12:10:10.042Z,2.13
2019-03-28T12:12:41.540Z,1.87
2019-03-28T12:15:12.306Z,2.80
2019-03-28T12:17:42.931Z,2.47
2019-03-28T12:20:14.740Z,2.47
2019-03-28T12:22:46.310Z,2.53
2019-03-28T12:25:17.850Z,3.20
2019-03-28T12:27:49.341Z,2.97
2019-03-28T12:30:20.002Z,2.90
2019-03-28T12:32:50.369Z,2.67
2019-03-28T12:35:21.689Z,2.63
2019-03-28T12:37:52.270Z,2.23
2019-03-28T12:40:23.587Z,2.50
2019-03-28T12:42:55.178Z,2.50
2019-03-28T12:45:27.532Z,2.80
2019-03-28T12:47:59.045Z,2.50
2019-03-28T12:50:29.805Z,2.30
2019-03-28T12:53:01.198Z,2.90
2019-03-28T12:55:32.780Z,2.97
2019-03-28T12:58:04.610Z,3.33
2019-03-28T13:00:37.479Z,2.87
2019-03-28T13:03:09.365Z,2.03
2019-03-28T13:05:40.914Z,2.20
2019-03-28T13:08:12.410Z,2.30
2019-03-28T13:10:43.895Z,2.60
2019-03-28T13:13:15.388Z,2.57
2019-03-28T13:15:47.164Z,2.27
2019-03-28T13:18:18.657Z,2.37
2019-03-28T13:20:51.126Z,2.20
2019-03-28T13:23:21.703Z,5.03
2019-03-28T13:25:53.058Z,2.07
2019-03-28T13:28:24.560Z,2.10
2019-03-28T13:30:55.065Z,2.07
2019-03-28T13:33:26.358Z,2.27
2019-03-28T13:35:57.767Z,2.40
2019-03-28T13:38:29.822Z,2.08
2019-03-28T13:41:01.272Z,2.05
2019-03-28T13:43:33.485Z,1.87
2019-03-28T13:46:06.609Z,2.27
2019-03-28T13:48:39.201Z,2.55
2019-03-28T13:51:11.259Z,2.50
2019-03-28T13:53:42.394Z,2.50
2019-03-28T13:56:13.326Z,2.45
2019-03-28T13:58:45.214Z,2.77
2019-03-28T14:01:15.781Z,2.73
2019-03-28T14:03:47.094Z,2.70
2019-03-28T14:06:18.578Z,2.80
2019-03-28T14:08:50.067Z,2.63
2019-03-28T14:11:21.569Z,2.10
2019-03-28T14:13:52.245Z,2.30
2019-03-28T14:16:23.685Z,2.30
2019-03-28T14:18:55.126Z,2.80
2019-03-28T14:21:25.690Z,2.27
2019-03-28T14:23:56.989Z,2.37
2019-03-28T14:26:29.714Z,2.57
2019-03-28T14:29:01.198Z,2.90
2019-03-28T14:31:31.709Z,2.80
2019-03-28T14:34:03.013Z,2.70
2019-03-28T14:36:34.508Z,2.60
2019-03-28T14:39:08.162Z,2.00
2019-03-28T14:41:39.726Z,2.30
2019-03-28T14:44:11.534Z,1.80
2019-03-28T14:46:43.023Z,2.60
2019-03-28T14:49:13.707Z,2.40
2019-03-28T14:51:45.002Z,2.37
2019-03-28T14:54:16.498Z,2.70
2019-03-28T14:56:48.318Z,2.47
2019-03-28T14:59:31.809Z,3.00
2019-03-28T15:01:53.355Z,2.50
2019-03-28T15:04:24.838Z,2.90
2019-03-28T15:06:55.725Z,2.27
2019-03-28T15:09:27.130Z,2.83
2019-03-28T15:11:58.645Z,3.57
2019-03-28T15:14:31.123Z,2.70
2019-03-28T15:17:03.319Z,2.80
2019-03-28T15:19:35.326Z,3.23
2019-03-28T15:22:06.907Z,2.70
2019-03-28T15:24:38.385Z,2.47
2019-03-28T15:27:09.910Z,3.50
2019-03-28T15:29:42.402Z,3.30
2019-03-28T15:32:13.942Z,2.30
2019-03-28T15:34:45.528Z,2.50
2019-03-28T15:37:17.018Z,2.23
2019-03-28T15:39:48.565Z,2.60
2019-03-28T15:42:20.071Z,2.57
2019-03-28T15:44:52.570Z,2.60
2019-03-28T15:47:24.950Z,2.97
2019-03-28T15:49:56.490Z,2.97
2019-03-28T15:52:27.986Z,2.80
2019-03-28T15:54:59.618Z,2.50
2019-03-28T15:57:31.104Z,3.80
2019-03-28T16:00:01.969Z,3.43
2019-03-28T16:02:33.901Z,3.50
2019-03-28T16:05:05.790Z,4.40
2019-03-28T16:07:37.534Z,3.70
2019-03-28T16:10:09.839Z,3.80
2019-03-28T16:12:41.411Z,3.60
2019-03-28T16:15:14.158Z,3.80
2019-03-28T16:17:45.923Z,2.97
2019-03-28T16:20:17.743Z,3.27
2019-03-28T16:22:49.363Z,4.20
2019-03-28T16:25:19.968Z,5.93
2019-03-28T16:27:52.055Z,4.37
2019-03-28T16:30:33.778Z,5.33
2019-03-28T16:33:05.368Z,4.17
2019-03-28T16:35:37.411Z,3.77
2019-03-28T16:38:09.026Z,4.10
2019-03-28T16:40:40.777Z,3.67
2019-03-28T16:43:12.483Z,4.50
2019-03-28T16:45:44.226Z,4.63
2019-03-28T16:48:15.813Z,5.10
2019-03-28T16:50:48.711Z,4.73
2019-03-28T16:53:20.773Z,4.13
2019-03-28T16:55:51.330Z,4.70
2019-03-28T16:58:23.059Z,4.43
2019-03-28T17:00:54.829Z,5.20
2019-03-28T17:03:26.511Z,6.33
2019-03-28T17:05:58.963Z,8.13
2019-03-28T17:08:33.042Z,6.83
2019-03-28T17:11:05.331Z,5.83
2019-03-28T17:13:37.459Z,5.43
2019-03-28T17:16:09.186Z,4.77
2019-03-28T17:18:39.626Z,5.67
2019-03-28T17:21:11.194Z,8.90
2019-03-28T17:23:42.686Z,7.63
2019-03-28T17:26:14.533Z,6.63
2019-03-28T17:28:46.250Z,6.63
2019-03-28T17:31:17.374Z,10.43
2019-03-28T17:33:48.901Z,10.60
2019-03-28T17:36:19.601Z,6.43
2019-03-28T17:38:50.895Z,6.00
2019-03-28T17:41:22.543Z,6.70
2019-03-28T17:43:54.165Z,5.40
2019-03-28T17:46:25.701Z,5.97
2019-03-28T17:48:57.714Z,6.10
2019-03-28T17:51:30.042Z,6.30
2019-03-28T17:54:01.660Z,7.47
2019-03-28T17:56:33.357Z,6.77
2019-03-28T17:59:05.065Z,6.57
2019-03-28T18:01:36.747Z,6.00
2019-03-28T18:04:21.925Z,3.90
2019-03-28T18:06:41.812Z,3.77
2019-03-28T18:09:13.537Z,3.67
2019-03-28T18:11:45.283Z,3.47
2019-03-28T18:14:16.771Z,3.80
2019-03-28T18:16:48.290Z,4.63
2019-03-28T18:19:19.794Z,6.80
2019-03-28T18:22:02.721Z,6.07
2019-03-28T18:24:24.496Z,7.97
2019-03-28T18:26:56.065Z,8.97
2019-03-28T18:29:27.726Z,6.03
2019-03-28T18:31:59.357Z,8.83
2019-03-28T18:34:31.743Z,6.23
2019-03-28T18:37:03.286Z,7.67
2019-03-28T18:39:35.742Z,11.10
2019-03-28T18:42:07.280Z,10.50
2019-03-28T18:44:38.837Z,10.30
2019-03-28T18:47:10.411Z,13.10
2019-03-28T18:49:41.906Z,12.73
2019-03-28T18:52:13.415Z,14.93
2019-03-28T18:54:44.910Z,16.70
2019-03-28T18:57:19.542Z,16.03
2019-03-28T18:59:49.814Z,13.10
2019-03-28T19:02:21.566Z,11.03
2019-03-28T19:04:53.390Z,9.30
2019-03-28T19:07:24.836Z,8.80
2019-03-28T19:09:57.301Z,7.83
2019-03-28T19:12:28.794Z,7.10
2019-03-28T19:15:00.379Z,6.80
2019-03-28T19:17:32.254Z,7.97
2019-03-28T19:20:02.742Z,8.87
2019-03-28T19:22:34.161Z,9.00
2019-03-28T19:25:06.486Z,9.77
2019-03-28T19:27:38.439Z,10.00
2019-03-28T19:30:12.571Z,9.80
2019-03-28T19:32:43.326Z,10.87
2019-03-28T19:35:14.690Z,11.43
2019-03-28T19:37:47.274Z,12.23
2019-03-28T19:40:18.070Z,11.80
2019-03-28T19:42:49.374Z,12.60
2019-03-28T19:45:35.723Z,12.63
2019-03-28T19:48:06.915Z,13.17
2019-03-28T19:50:38.574Z,12.07
2019-03-28T19:53:11.862Z,13.30
2019-03-28T19:55:43.463Z,12.10
2019-03-28T19:58:14.958Z,14.00
2019-03-28T20:00:46.491Z,13.83
2019-03-28T20:03:17.982Z,15.43
2019-03-28T20:05:50.225Z,15.70
2019-03-28T20:08:21.909Z,16.03
2019-03-28T20:10:53.497Z,16.30
2019-03-28T20:13:24.980Z,15.80
2019-03-28T20:15:56.513Z,16.07
2019-03-28T20:18:28.074Z,18.73
2019-03-28T20:20:59.670Z,17.67
2019-03-28T20:23:31.175Z,20.40
2019-03-28T20:26:02.811Z,20.60
2019-03-28T20:28:34.461Z,21.40
2019-03-28T20:31:06.088Z,22.90
2019-03-28T20:33:37.878Z,26.77
2019-03-28T20:36:30.539Z,34.47
2019-03-28T20:38:44.691Z,39.43
2019-03-28T20:41:16.958Z,28.60
2019-03-28T20:43:48.574Z,27.73
2019-03-28T20:46:20.822Z,26.43
2019-03-28T20:48:52.419Z,27.60
2019-03-28T20:51:24.706Z,26.57
2019-03-28T20:53:56.370Z,26.03
2019-03-28T20:56:26.925Z,26.10
2019-03-28T20:58:58.213Z,26.40
2019-03-28T21:01:30.849Z,27.97
2019-03-28T21:04:03.358Z,31.47
2019-03-28T21:06:36.297Z,31.60
2019-03-28T21:09:09.522Z,30.03
2019-03-28T21:11:41.109Z,31.53
2019-03-28T21:14:12.666Z,30.30
2019-03-28T21:16:44.507Z,32.10
2019-03-28T21:19:16.594Z,29.30
2019-03-28T21:21:48.093Z,29.17
2019-03-28T21:24:19.630Z,28.13
2019-03-28T21:26:51.129Z,29.17
2019-03-28T21:29:23.014Z,30.13
2019-03-28T21:31:56.050Z,26.80
2019-03-28T21:34:29.022Z,26.40
2019-03-28T21:37:01.368Z,25.53
2019-03-28T21:39:32.931Z,27.37
2019-03-28T21:42:07.056Z,26.40
2019-03-28T21:44:37.822Z,25.73
2019-03-28T21:47:09.697Z,26.00
2019-03-28T21:49:40.302Z,25.70
2019-03-28T21:52:11.602Z,26.30
2019-03-28T21:54:43.110Z,28.03
2019-03-28T21:57:14.831Z,27.17
2019-03-28T21:59:46.451Z,29.73
2019-03-28T22:02:17.946Z,28.30
2019-03-28T22:04:49.398Z,26.53
2019-03-28T22:07:20.889Z,28.37
2019-03-28T22:09:52.762Z,26.77
2019-03-28T22:12:24.266Z,26.47
2019-03-28T22:14:55.862Z,26.87
2019-03-28T22:17:27.366Z,26.97
2019-03-28T22:19:58.890Z,26.77
2019-03-28T22:22:29.462Z,28.97
2019-03-28T22:25:01.674Z,27.00
2019-03-28T22:27:33.170Z,27.77
2019-03-28T22:30:05.302Z,28.00
2019-03-28T22:32:36.866Z,28.53
2019-03-28T22:35:08.761Z,28.13
2019-03-28T22:37:40.263Z,27.03
2019-03-28T22:40:12.323Z,27.47
2019-03-28T22:42:43.862Z,27.70
2019-03-28T22:45:15.518Z,26.87
2019-03-28T22:47:47.022Z,28.53
2019-03-28T22:50:18.526Z,29.70
2019-03-28T22:52:50.407Z,27.83
2019-03-28T22:55:22.037Z,28.77
2019-03-28T22:57:54.087Z,29.13
2019-03-28T23:00:40.121Z,27.13
2019-03-28T23:03:13.002Z,31.00
2019-03-28T23:05:43.742Z,30.63
2019-03-28T23:08:15.093Z,32.53
2019-03-28T23:10:48.079Z,31.83
2019-03-28T23:13:20.669Z,30.10
2019-03-28T23:15:53.963Z,30.47
2019-03-28T23:18:25.486Z,34.07
2019-03-28T23:20:57.022Z,32.40
2019-03-28T23:23:28.538Z,33.57
2019-03-28T23:26:00.141Z,31.60
2019-03-28T23:28:31.723Z,31.23
2019-03-28T23:31:04.977Z,30.60
2019-03-28T23:33:36.529Z,31.23
2019-03-28T23:36:08.518Z,30.17
2019-03-28T23:38:40.090Z,29.70
2019-03-28T23:41:11.589Z,28.90
2019-03-28T23:43:43.378Z,29.93
2019-03-28T23:46:14.806Z,29.07
2019-03-28T23:48:46.260Z,29.30
2019-03-28T23:51:17.778Z,27.80
2019-03-28T23:53:48.341Z,28.20
2019-03-28T23:56:19.607Z,27.60
2019-03-28T23:58:51.097Z,26.77
